createdAt,value
2022-10-05T00:00:14.509Z,99.99
2022-10-05T00:01:14.491Z,99.99
2022-10-05T00:02:14.552Z,99.99
2022-10-05T00:03:23.340Z,99.99
2022-10-05T00:05:26.001Z,99.99
2022-10-05T00:06:35.727Z,99.99
2022-10-05T00:07:34.547Z,99.99
2022-10-05T00:08:33.540Z,99.99
2022-10-05T00:09:33.485Z,99.99
2022-10-05T00:10:25.839Z,99.99
2022-10-05T00:11:25.848Z,99.99
2022-10-05T00:12:25.800Z,99.99
2022-10-05T00:13:25.917Z,99.99
2022-10-05T00:14:25.737Z,99.99
2022-10-05T00:15:25.701Z,99.99
2022-10-05T00:16:25.785Z,99.99
2022-10-05T00:17:25.709Z,99.99
2022-10-05T00:18:25.672Z,99.99
2022-10-05T00:19:25.657Z,99.99
2022-10-05T00:20:25.674Z,99.99
2022-10-05T00:21:25.627Z,99.99
2022-10-05T00:22:25.613Z,99.99
2022-10-05T00:23:25.630Z,99.99
2022-10-05T00:24:25.594Z,99.99
2022-10-05T00:25:25.597Z,99.99
2022-10-05T00:26:25.604Z,99.99
2022-10-05T00:27:25.566Z,99.99
2022-10-05T00:28:25.638Z,99.99
2022-10-05T00:29:25.540Z,99.99
2022-10-05T00:30:25.559Z,99.99
2022-10-05T00:31:25.596Z,99.99
2022-10-05T00:32:25.518Z,99.99
2022-10-05T00:33:25.541Z,99.99
2022-10-05T00:34:25.495Z,99.99
2022-10-05T00:35:25.493Z,99.99
2022-10-05T00:36:25.471Z,99.99
2022-10-05T00:37:25.456Z,99.99
2022-10-05T00:38:25.464Z,99.99
2022-10-05T00:39:25.478Z,99.99
2022-10-05T00:40:25.455Z,99.99
2022-10-05T00:41:25.431Z,99.99
2022-10-05T00:42:25.408Z,99.99
2022-10-05T00:43:25.412Z,99.99
2022-10-05T00:44:25.420Z,99.99
2022-10-05T00:45:25.565Z,99.99
2022-10-05T00:46:25.406Z,99.99
2022-10-05T00:47:25.361Z,99.99
2022-10-05T00:48:25.335Z,99.99
2022-10-05T00:49:25.407Z,99.99
2022-10-05T00:50:25.341Z,99.99
2022-10-05T00:51:25.310Z,99.99
2022-10-05T00:52:25.307Z,99.99
2022-10-05T00:53:25.296Z,99.99
2022-10-05T00:54:25.303Z,99.99
2022-10-05T00:55:25.275Z,99.99
2022-10-05T00:56:25.251Z,99.99
2022-10-05T00:57:25.287Z,99.99
2022-10-05T00:58:25.239Z,99.99
2022-10-05T00:59:25.228Z,99.99
2022-10-05T01:00:25.245Z,99.99
2022-10-05T01:01:25.317Z,99.99
2022-10-05T01:02:25.295Z,99.99
2022-10-05T01:03:25.186Z,99.99
2022-10-05T01:04:25.177Z,99.99
2022-10-05T01:05:25.180Z,99.99
2022-10-05T01:06:25.183Z,99.99
2022-10-05T01:07:25.145Z,99.99
2022-10-05T01:08:25.126Z,99.99
2022-10-05T01:09:25.144Z,99.99
2022-10-05T01:10:25.110Z,99.99
2022-10-05T01:11:25.153Z,99.99
2022-10-05T01:12:25.111Z,99.99
2022-10-05T01:13:25.080Z,99.99
2022-10-05T01:14:25.063Z,99.99
2022-10-05T01:15:25.142Z,99.99
2022-10-05T01:16:25.126Z,99.99
2022-10-05T01:17:25.039Z,99.99
2022-10-05T01:18:25.053Z,99.99
2022-10-05T01:19:25.023Z,99.99
2022-10-05T01:20:25.039Z,99.99
2022-10-05T01:21:25.004Z,99.99
2022-10-05T01:22:24.997Z,99.99
2022-10-05T01:23:25.022Z,99.99
2022-10-05T01:24:24.960Z,99.99
2022-10-05T01:25:24.962Z,99.99
2022-10-05T01:26:24.955Z,99.99
2022-10-05T01:27:24.937Z,99.99
2022-10-05T01:28:25.020Z,99.99
2022-10-05T01:29:24.910Z,99.99
2022-10-05T01:30:24.886Z,99.99
2022-10-05T01:31:24.953Z,99.99
2022-10-05T01:32:24.884Z,99.99
2022-10-05T01:33:24.867Z,99.99
2022-10-05T01:34:24.880Z,99.99
2022-10-05T01:35:24.850Z,99.99
2022-10-05T01:36:24.836Z,99.99
2022-10-05T01:37:24.883Z,99.99
2022-10-05T01:38:24.824Z,99.99
2022-10-05T01:39:24.798Z,99.99
2022-10-05T01:40:24.813Z,99.99
2022-10-05T01:41:24.781Z,99.99
2022-10-05T01:42:24.780Z,99.99
2022-10-05T01:43:34.691Z,99.99
2022-10-05T01:44:24.831Z,99.99
2022-10-05T01:45:24.808Z,99.99
2022-10-05T01:46:24.866Z,99.99
2022-10-05T01:47:24.760Z,99.99
2022-10-05T01:48:24.713Z,99.99
2022-10-05T01:49:24.715Z,99.99
2022-10-05T01:50:24.699Z,99.99
2022-10-05T01:51:24.715Z,99.99
2022-10-05T01:52:24.744Z,99.99
2022-10-05T01:53:24.657Z,99.99
2022-10-05T01:54:24.677Z,99.99
2022-10-05T01:55:24.694Z,99.99
2022-10-05T01:56:24.631Z,99.99
2022-10-05T01:57:24.600Z,99.99
2022-10-05T01:58:24.614Z,99.99
2022-10-05T01:59:24.582Z,99.99
2022-10-05T02:00:24.611Z,99.99
2022-10-05T02:01:24.687Z,99.99
2022-10-05T02:02:24.616Z,99.99
2022-10-05T02:03:24.556Z,99.99
2022-10-05T02:04:56.599Z,99.99
2022-10-05T02:05:25.564Z,99.99
2022-10-05T02:06:24.528Z,99.99
2022-10-05T02:07:24.512Z,99.99
2022-10-05T02:08:24.485Z,99.99
2022-10-05T02:09:24.503Z,99.99
2022-10-05T02:10:24.483Z,99.99
2022-10-05T02:11:24.470Z,99.99
2022-10-05T02:12:24.481Z,99.99
2022-10-05T02:13:24.460Z,99.99
2022-10-05T02:14:24.443Z,99.99
2022-10-05T02:15:24.436Z,99.99
2022-10-05T02:16:24.477Z,99.99
2022-10-05T02:17:24.397Z,99.99
2022-10-05T02:18:24.387Z,99.99
2022-10-05T02:19:24.420Z,99.99
2022-10-05T02:20:24.363Z,99.99
2022-10-05T02:21:24.360Z,99.99
2022-10-05T02:22:24.396Z,99.99
2022-10-05T02:23:24.335Z,99.99
2022-10-05T02:24:34.224Z,99.99
2022-10-05T02:25:32.984Z,99.99
2022-10-05T02:26:24.446Z,99.99
2022-10-05T02:27:34.002Z,99.99
2022-10-05T02:28:24.463Z,99.99
2022-10-05T02:29:24.349Z,99.99
2022-10-05T02:30:24.320Z,99.99
2022-10-05T02:31:24.433Z,99.99
2022-10-05T02:32:24.282Z,99.99
2022-10-05T02:33:24.246Z,99.99
2022-10-05T02:34:24.243Z,99.99
2022-10-05T02:35:24.214Z,99.99
2022-10-05T02:36:24.214Z,99.99
2022-10-05T02:37:24.193Z,99.99
2022-10-05T02:38:24.191Z,99.99
2022-10-05T02:39:24.173Z,99.99
2022-10-05T02:40:24.151Z,99.99
2022-10-05T02:41:24.141Z,99.99
2022-10-05T02:42:24.135Z,99.99
2022-10-05T02:43:24.127Z,99.99
2022-10-05T02:44:24.104Z,99.99
2022-10-05T02:45:24.106Z,99.99
2022-10-05T02:46:24.140Z,99.99
2022-10-05T02:47:24.088Z,99.99
2022-10-05T02:48:24.090Z,99.99
2022-10-05T02:49:24.046Z,99.99
2022-10-05T02:50:24.036Z,99.99
2022-10-05T02:51:24.071Z,99.99
2022-10-05T02:52:24.027Z,99.99
2022-10-05T02:53:24.025Z,99.99
2022-10-05T02:54:24.024Z,99.99
2022-10-05T02:55:23.979Z,99.99
2022-10-05T02:56:23.993Z,99.99
2022-10-05T02:57:23.959Z,99.99
2022-10-05T02:58:23.947Z,99.99
2022-10-05T02:59:23.958Z,99.99
2022-10-05T03:00:23.937Z,99.99
2022-10-05T03:01:24.087Z,99.99
2022-10-05T03:02:23.965Z,99.99
2022-10-05T03:03:23.927Z,99.99
2022-10-05T03:04:23.922Z,99.99
2022-10-05T03:05:23.908Z,99.99
2022-10-05T03:06:23.881Z,99.99
2022-10-05T03:07:23.849Z,99.99
2022-10-05T03:08:23.899Z,99.99
2022-10-05T03:09:23.836Z,99.99
2022-10-05T03:10:23.884Z,99.99
2022-10-05T03:11:23.853Z,99.99
2022-10-05T03:12:23.813Z,99.99
2022-10-05T03:13:23.815Z,99.99
2022-10-05T03:14:23.792Z,99.99
2022-10-05T03:15:23.761Z,99.99
2022-10-05T03:16:23.804Z,99.99
2022-10-05T03:17:23.760Z,99.99
2022-10-05T03:18:26.341Z,99.99
2022-10-05T03:19:24.741Z,99.99
2022-10-05T03:20:23.721Z,99.99
2022-10-05T03:21:23.706Z,99.99
2022-10-05T03:22:32.711Z,99.99
2022-10-05T03:23:23.753Z,99.99
2022-10-05T03:24:23.747Z,99.99
2022-10-05T03:25:23.808Z,99.99
2022-10-05T03:26:23.711Z,99.99
2022-10-05T03:27:23.644Z,99.99
2022-10-05T03:28:23.735Z,99.99
2022-10-05T03:29:23.639Z,99.99
2022-10-05T03:30:23.601Z,99.99
2022-10-05T03:31:23.620Z,99.99
2022-10-05T03:32:23.647Z,99.99
2022-10-05T03:33:23.568Z,99.99
2022-10-05T03:34:23.582Z,99.99
2022-10-05T03:35:23.556Z,99.99
2022-10-05T03:36:23.537Z,99.99
2022-10-05T03:37:23.530Z,99.99
2022-10-05T03:38:23.566Z,99.99
2022-10-05T03:39:23.523Z,99.99
2022-10-05T03:40:23.515Z,99.99
2022-10-05T03:41:23.498Z,99.99
2022-10-05T03:42:23.578Z,99.99
2022-10-05T03:43:23.482Z,99.99
2022-10-05T03:44:23.467Z,99.99
2022-10-05T03:45:23.466Z,99.99
2022-10-05T03:46:23.455Z,99.99
2022-10-05T03:47:23.433Z,99.99
2022-10-05T03:48:23.529Z,99.99
2022-10-05T03:49:23.420Z,99.99
2022-10-05T03:50:23.390Z,99.99
2022-10-05T03:51:23.418Z,99.99
2022-10-05T03:52:23.388Z,99.99
2022-10-05T03:53:23.394Z,99.99
2022-10-05T03:54:23.351Z,99.99
2022-10-05T03:55:23.348Z,99.99
2022-10-05T03:56:23.391Z,99.99
2022-10-05T03:57:23.331Z,99.99
2022-10-05T03:58:23.343Z,99.99
2022-10-05T03:59:23.308Z,99.99
2022-10-05T04:00:23.284Z,99.99
2022-10-05T04:01:23.325Z,99.99
2022-10-05T04:02:23.344Z,99.99
2022-10-05T04:03:23.303Z,99.99
2022-10-05T04:04:23.266Z,99.99
2022-10-05T04:05:23.282Z,99.99
2022-10-05T04:06:23.216Z,99.99
2022-10-05T04:07:23.228Z,99.99
2022-10-05T04:08:23.225Z,99.99
2022-10-05T04:09:23.203Z,99.99
2022-10-05T04:10:33.239Z,99.99
2022-10-05T04:11:31.962Z,99.99
2022-10-05T04:12:32.874Z,99.99
2022-10-05T04:14:35.999Z,99.99
2022-10-05T04:15:35.941Z,99.99
2022-10-05T04:16:35.895Z,99.99
2022-10-05T04:17:45.491Z,99.99
2022-10-05T04:18:35.879Z,99.99
2022-10-05T04:19:35.808Z,99.99
2022-10-05T04:20:35.870Z,99.99
2022-10-05T04:21:35.770Z,99.99
2022-10-05T04:22:35.781Z,99.99
2022-10-05T04:23:35.722Z,99.99
2022-10-05T04:24:35.716Z,99.99
2022-10-05T04:25:35.738Z,99.99
2022-10-05T04:26:35.690Z,99.99
2022-10-05T04:27:35.661Z,99.99
2022-10-05T04:28:35.734Z,99.99
2022-10-05T04:29:35.664Z,99.99
2022-10-05T04:30:35.648Z,99.99
2022-10-05T04:31:35.733Z,99.99
2022-10-05T04:32:35.617Z,99.99
2022-10-05T04:33:35.600Z,99.99
2022-10-05T04:34:35.590Z,99.99
2022-10-05T04:35:35.591Z,99.99
2022-10-05T04:36:35.596Z,99.99
2022-10-05T04:37:35.553Z,99.99
2022-10-05T04:38:35.601Z,99.99
2022-10-05T04:39:35.593Z,99.99
2022-10-05T04:40:35.540Z,99.99
2022-10-05T04:41:35.546Z,99.99
2022-10-05T04:42:44.274Z,99.99
2022-10-05T04:43:35.644Z,99.99
2022-10-05T04:44:35.606Z,99.99
2022-10-05T04:45:44.202Z,99.99
2022-10-05T04:46:35.692Z,99.99
2022-10-05T04:47:35.636Z,99.99
2022-10-05T04:48:35.532Z,99.99
2022-10-05T04:49:35.566Z,99.99
2022-10-05T04:50:35.473Z,99.99
2022-10-05T04:51:35.414Z,99.99
2022-10-05T04:52:35.419Z,99.99
2022-10-05T04:53:35.383Z,99.99
2022-10-05T04:54:35.414Z,99.99
2022-10-05T04:55:35.381Z,99.99
2022-10-05T04:56:35.366Z,99.99
2022-10-05T04:57:35.347Z,99.99
2022-10-05T04:58:40.071Z,99.99
2022-10-05T04:59:36.328Z,99.99
2022-10-05T05:00:35.346Z,99.99
2022-10-05T05:01:43.012Z,99.99
2022-10-05T05:02:43.953Z,99.99
2022-10-05T05:03:35.530Z,99.99
2022-10-05T05:04:35.464Z,99.99
2022-10-05T05:05:35.301Z,99.99
2022-10-05T05:06:35.411Z,99.99
2022-10-05T05:07:35.295Z,99.99
2022-10-05T05:08:35.245Z,99.99
2022-10-05T05:09:35.272Z,99.99
2022-10-05T05:10:35.224Z,99.99
2022-10-05T05:11:35.195Z,99.99
2022-10-05T05:12:35.186Z,99.99
2022-10-05T05:13:35.183Z,99.99
2022-10-05T05:14:35.168Z,99.99
2022-10-05T05:15:35.184Z,99.99
2022-10-05T05:16:35.261Z,99.99
2022-10-05T05:17:35.223Z,99.99
2022-10-05T05:18:35.129Z,99.99
2022-10-05T05:19:35.112Z,99.99
2022-10-05T05:20:35.123Z,99.99
2022-10-05T05:21:35.095Z,99.99
2022-10-05T05:22:35.099Z,99.99
2022-10-05T05:23:35.066Z,99.99
2022-10-05T05:24:35.048Z,99.99
2022-10-05T05:25:35.056Z,99.99
2022-10-05T05:26:45.574Z,99.99
2022-10-05T05:27:36.030Z,99.99
2022-10-05T05:28:35.094Z,99.99
2022-10-05T05:29:35.019Z,99.99
2022-10-05T05:30:35.010Z,99.99
2022-10-05T05:31:35.122Z,99.99
2022-10-05T05:32:35.031Z,99.99
2022-10-05T05:33:35.046Z,99.99
2022-10-05T05:34:34.984Z,99.99
2022-10-05T05:35:34.945Z,99.99
2022-10-05T05:36:34.928Z,99.99
2022-10-05T05:37:34.924Z,99.99
2022-10-05T05:38:34.915Z,99.99
2022-10-05T05:39:34.912Z,99.99
2022-10-05T05:40:34.884Z,99.99
2022-10-05T05:41:34.904Z,99.99
2022-10-05T05:42:34.882Z,99.99
2022-10-05T05:43:34.875Z,99.99
2022-10-05T05:44:38.562Z,99.99
2022-10-05T05:45:34.842Z,99.99
2022-10-05T05:46:58.715Z,99.99
2022-10-05T05:47:35.936Z,99.99
2022-10-05T05:48:34.860Z,99.99
2022-10-05T05:49:34.822Z,99.99
2022-10-05T05:50:34.872Z,99.99
2022-10-05T05:51:34.808Z,99.99
2022-10-05T05:52:34.809Z,99.99
2022-10-05T05:53:34.783Z,99.99
2022-10-05T05:54:34.791Z,99.99
2022-10-05T05:55:34.732Z,99.99
2022-10-05T05:56:34.713Z,99.99
2022-10-05T05:57:34.726Z,99.99
2022-10-05T05:58:34.709Z,99.99
2022-10-05T05:59:34.686Z,99.99
2022-10-05T06:00:34.726Z,99.99
2022-10-05T06:01:34.683Z,99.99
2022-10-05T06:02:34.816Z,99.99
2022-10-05T06:03:34.652Z,99.99
2022-10-05T06:04:34.629Z,99.99
2022-10-05T06:05:34.622Z,99.99
2022-10-05T06:06:34.610Z,99.99
2022-10-05T06:07:34.597Z,99.99
2022-10-05T06:08:34.604Z,99.99
2022-10-05T06:09:34.592Z,99.99
2022-10-05T06:10:34.597Z,99.99
2022-10-05T06:11:34.565Z,99.47
2022-10-05T06:12:34.557Z,99.02
2022-10-05T06:13:34.545Z,99.43
2022-10-05T06:14:34.533Z,99.11
2022-10-05T06:15:34.542Z,99.22
2022-10-05T06:16:34.556Z,99.02
2022-10-05T06:17:34.586Z,98.86
2022-10-05T06:18:34.491Z,98.56
2022-10-05T06:19:34.473Z,98.86
2022-10-05T06:20:34.466Z,98.61
2022-10-05T06:21:34.500Z,98.21
2022-10-05T06:22:34.447Z,97.60
2022-10-05T06:23:34.427Z,97.29
2022-10-05T06:24:34.421Z,98.11
2022-10-05T06:25:34.404Z,97.19
2022-10-05T06:26:34.423Z,96.78
2022-10-05T06:27:34.401Z,96.68
2022-10-05T06:28:34.468Z,96.58
2022-10-05T06:29:34.392Z,96.98
2022-10-05T06:30:34.453Z,96.78
2022-10-05T06:31:34.425Z,97.14
2022-10-05T06:32:34.348Z,97.14
2022-10-05T06:33:34.333Z,96.84
2022-10-05T06:34:34.331Z,96.63
2022-10-05T06:35:34.321Z,96.43
2022-10-05T06:36:34.297Z,96.12
2022-10-05T06:37:34.311Z,95.72
2022-10-05T06:38:34.300Z,95.26
2022-10-05T06:39:34.280Z,94.65
2022-10-05T06:40:34.274Z,95.16
2022-10-05T06:41:34.263Z,95.01
2022-10-05T06:42:45.379Z,94.81
2022-10-05T06:44:56.369Z,95.01
2022-10-05T06:45:45.878Z,94.50
2022-10-05T06:46:46.073Z,94.20
2022-10-05T06:47:45.670Z,94.15
2022-10-05T06:48:45.654Z,94.40
2022-10-05T06:49:45.627Z,94.26
2022-10-05T06:50:45.616Z,94.46
2022-10-05T06:51:45.621Z,94.35
2022-10-05T06:52:45.591Z,94.15
2022-10-05T06:53:45.603Z,94.05
2022-10-05T06:54:45.554Z,93.64
2022-10-05T06:55:45.551Z,93.95
2022-10-05T06:56:45.933Z,93.40
2022-10-05T06:57:45.631Z,93.50
2022-10-05T06:58:45.512Z,92.99
2022-10-05T06:59:45.532Z,93.19
2022-10-05T07:00:45.557Z,92.48
2022-10-05T07:01:45.879Z,92.99
2022-10-05T07:02:45.519Z,92.79
2022-10-05T07:03:45.547Z,92.99
2022-10-05T07:04:45.568Z,92.94
2022-10-05T07:05:45.603Z,92.68
2022-10-05T07:06:45.550Z,92.27
2022-10-05T07:07:45.459Z,92.27
2022-10-05T07:08:45.516Z,91.66
2022-10-05T07:09:45.515Z,91.93
2022-10-05T07:10:45.411Z,91.62
2022-10-05T07:11:45.868Z,91.62
2022-10-05T07:12:45.402Z,91.42
2022-10-05T07:13:45.374Z,92.13
2022-10-05T07:14:45.384Z,91.72
2022-10-05T07:15:45.351Z,91.62
2022-10-05T07:16:45.525Z,92.19
2022-10-05T07:17:45.433Z,91.83
2022-10-05T07:18:45.319Z,91.99
2022-10-05T07:19:45.340Z,91.52
2022-10-05T07:20:49.043Z,91.72
2022-10-05T07:21:45.743Z,91.27
2022-10-05T07:22:45.285Z,91.38
2022-10-05T07:23:45.289Z,91.27
2022-10-05T07:24:45.362Z,90.66
2022-10-05T07:25:45.344Z,90.36
2022-10-05T07:26:45.606Z,90.22
2022-10-05T07:27:49.493Z,90.42
2022-10-05T07:28:46.272Z,89.61
2022-10-05T07:29:45.217Z,89.61
2022-10-05T07:30:45.271Z,90.07
2022-10-05T07:31:45.272Z,89.36
2022-10-05T07:32:45.150Z,89.56
2022-10-05T07:33:45.140Z,89.56
2022-10-05T07:34:45.230Z,89.56
2022-10-05T07:35:45.198Z,89.22
2022-10-05T07:36:45.615Z,89.01
2022-10-05T07:37:45.119Z,87.89
2022-10-05T07:38:45.083Z,88.40
2022-10-05T07:40:01.388Z,88.81
2022-10-05T07:40:46.110Z,88.10
2022-10-05T07:41:45.080Z,88.26
2022-10-05T07:42:51.554Z,87.95
2022-10-05T07:44:01.505Z,88.16
2022-10-05T07:44:46.047Z,88.21
2022-10-05T07:45:45.047Z,87.40
2022-10-05T07:46:45.434Z,87.61
2022-10-05T07:47:44.998Z,87.87
2022-10-05T07:48:44.980Z,87.67
2022-10-05T07:49:44.987Z,86.65
2022-10-05T07:50:45.007Z,86.35
2022-10-05T07:51:44.980Z,86.65
2022-10-05T07:52:44.950Z,86.76
2022-10-05T07:53:44.930Z,85.94
2022-10-05T07:54:44.910Z,86.45
2022-10-05T07:55:44.913Z,86.21
2022-10-05T07:56:45.326Z,85.84
2022-10-05T07:57:44.886Z,85.84
2022-10-05T07:58:44.877Z,86.00
2022-10-05T07:59:44.873Z,85.90
2022-10-05T08:00:44.854Z,85.90
2022-10-05T08:01:44.861Z,86.21
2022-10-05T08:02:44.884Z,85.70
2022-10-05T08:03:44.818Z,84.78
2022-10-05T08:04:44.848Z,85.09
2022-10-05T08:05:44.785Z,84.69
2022-10-05T08:06:45.165Z,84.38
2022-10-05T08:07:44.790Z,84.78
2022-10-05T08:08:44.773Z,85.09
2022-10-05T08:09:44.784Z,84.89
2022-10-05T08:10:44.766Z,84.48
2022-10-05T08:11:45.020Z,84.78
2022-10-05T08:12:44.755Z,85.30
2022-10-05T08:13:44.768Z,84.34
2022-10-05T08:14:44.696Z,85.01
2022-10-05T08:15:44.776Z,85.42
2022-10-05T08:16:44.674Z,84.56
2022-10-05T08:17:44.703Z,83.55
2022-10-05T08:18:44.675Z,83.55
2022-10-05T08:19:44.658Z,84.06
2022-10-05T08:20:44.646Z,83.86
2022-10-05T08:21:45.121Z,83.61
2022-10-05T08:22:44.643Z,82.90
2022-10-05T08:24:55.106Z,82.67
2022-10-05T08:25:55.021Z,82.76
2022-10-05T08:26:54.993Z,82.67
2022-10-05T08:27:55.102Z,82.10
2022-10-05T08:28:54.946Z,82.50
2022-10-05T08:29:54.921Z,83.21
2022-10-05T08:30:55.064Z,83.01
2022-10-05T08:31:54.912Z,83.27
2022-10-05T08:32:54.867Z,82.16
2022-10-05T08:33:54.880Z,81.11
2022-10-05T08:34:54.900Z,82.83
2022-10-05T08:35:54.947Z,82.83
2022-10-05T08:36:54.868Z,81.82
2022-10-05T08:37:54.833Z,81.41
2022-10-05T08:38:54.815Z,81.31
2022-10-05T08:39:54.807Z,82.22
2022-10-05T08:40:54.801Z,82.53
2022-10-05T08:41:54.808Z,82.12
2022-10-05T08:42:54.834Z,82.93
2022-10-05T08:43:54.801Z,82.59
2022-10-05T08:44:54.743Z,82.28
2022-10-05T08:45:54.806Z,81.98
2022-10-05T08:46:54.739Z,81.27
2022-10-05T08:47:54.739Z,80.97
2022-10-05T08:48:54.745Z,82.08
2022-10-05T08:49:54.733Z,81.27
2022-10-05T08:50:54.683Z,81.07
2022-10-05T08:51:54.700Z,81.34
2022-10-05T08:52:54.687Z,81.74
2022-10-05T08:53:54.679Z,81.13
2022-10-05T08:54:54.634Z,80.63
2022-10-05T08:55:54.639Z,81.34
2022-10-05T08:56:54.655Z,80.93
2022-10-05T08:57:54.633Z,80.83
2022-10-05T08:58:54.610Z,80.22
2022-10-05T08:59:54.690Z,80.53
2022-10-05T09:00:54.583Z,80.63
2022-10-05T09:01:54.622Z,80.63
2022-10-05T09:02:54.610Z,80.73
2022-10-05T09:03:54.543Z,80.53
2022-10-05T09:04:54.533Z,80.43
2022-10-05T09:05:54.586Z,80.73
2022-10-05T09:06:54.526Z,80.99
2022-10-05T09:07:54.494Z,81.13
2022-10-05T09:08:54.509Z,82.35
2022-10-05T09:09:58.263Z,81.60
2022-10-05T09:10:55.494Z,81.03
2022-10-05T09:11:54.453Z,81.03
2022-10-05T09:12:54.450Z,80.93
2022-10-05T09:13:54.448Z,81.27
2022-10-05T09:15:20.494Z,81.57
2022-10-05T09:15:55.496Z,81.98
2022-10-05T09:16:54.393Z,81.68
2022-10-05T09:17:54.398Z,83.09
2022-10-05T09:18:54.375Z,81.88
2022-10-05T09:19:54.373Z,82.89
2022-10-05T09:20:54.383Z,82.69
2022-10-05T09:21:54.367Z,82.49
2022-10-05T09:22:54.371Z,82.69
2022-10-05T09:23:54.323Z,82.59
2022-10-05T09:24:54.325Z,82.89
2022-10-05T09:25:54.312Z,81.37
2022-10-05T09:26:54.299Z,82.79
2022-10-05T09:27:54.377Z,82.69
2022-10-05T09:28:54.300Z,83.19
2022-10-05T09:29:54.350Z,82.99
2022-10-05T09:30:54.299Z,82.89
2022-10-05T09:31:54.282Z,82.65
2022-10-05T09:32:54.230Z,81.74
2022-10-05T09:33:54.272Z,80.93
2022-10-05T09:34:54.215Z,80.93
2022-10-05T09:35:54.199Z,80.99
2022-10-05T09:36:54.234Z,81.46
2022-10-05T09:37:54.202Z,80.92
2022-10-05T09:38:54.180Z,81.02
2022-10-05T09:39:57.809Z,80.72
2022-10-05T09:40:55.144Z,80.88
2022-10-05T09:41:54.130Z,80.13
2022-10-05T09:42:54.131Z,79.23
2022-10-05T09:43:54.136Z,78.72
2022-10-05T09:44:54.131Z,77.88
2022-10-05T09:45:54.134Z,79.09
2022-10-05T09:46:54.082Z,77.72
2022-10-05T09:47:54.098Z,78.15
2022-10-05T09:48:54.064Z,78.79
2022-10-05T09:49:54.072Z,77.78
2022-10-05T09:50:54.045Z,76.27
2022-10-05T09:51:54.115Z,77.17
2022-10-05T09:52:54.011Z,77.38
2022-10-05T09:53:54.026Z,77.88
2022-10-05T09:54:54.006Z,77.55
2022-10-05T09:55:54.041Z,76.54
2022-10-05T09:56:53.994Z,76.64
2022-10-05T09:57:53.956Z,77.55
2022-10-05T09:58:53.986Z,77.20
2022-10-05T09:59:54.027Z,77.40
2022-10-05T10:01:03.651Z,76.30
2022-10-05T10:01:55.007Z,77.50
2022-10-05T10:02:53.970Z,76.70
2022-10-05T10:03:53.909Z,76.60
2022-10-05T10:05:04.630Z,76.26
2022-10-05T10:05:54.025Z,76.20
2022-10-05T10:06:54.015Z,76.20
2022-10-05T10:07:53.939Z,76.10
2022-10-05T10:08:54.060Z,76.54
2022-10-05T10:09:53.852Z,76.84
2022-10-05T10:10:53.831Z,76.03
2022-10-05T10:11:53.811Z,76.43
2022-10-05T10:12:53.859Z,77.08
2022-10-05T10:13:53.852Z,76.14
2022-10-05T10:14:53.782Z,76.03
2022-10-05T10:15:53.820Z,77.04
2022-10-05T10:16:53.752Z,75.73
2022-10-05T10:17:53.748Z,76.90
2022-10-05T10:18:53.770Z,76.90
2022-10-05T10:19:53.848Z,76.60
2022-10-05T10:20:53.735Z,76.50
2022-10-05T10:21:53.702Z,76.90
2022-10-05T10:22:53.686Z,77.61
2022-10-05T10:23:53.710Z,76.70
2022-10-05T10:24:53.668Z,76.20
2022-10-05T10:25:53.678Z,77.20
2022-10-05T10:26:53.674Z,77.37
2022-10-05T10:27:53.848Z,78.07
2022-10-05T10:28:53.652Z,77.07
2022-10-05T10:29:53.633Z,77.37
2022-10-05T10:30:53.644Z,77.37
2022-10-05T10:31:53.627Z,77.67
2022-10-05T10:32:53.600Z,77.27
2022-10-05T10:33:53.584Z,75.86
2022-10-05T10:34:53.574Z,76.56
2022-10-05T10:35:53.681Z,77.47
2022-10-05T10:36:53.547Z,77.77
2022-10-05T10:37:53.554Z,77.27
2022-10-05T10:38:53.519Z,77.27
2022-10-05T10:39:53.516Z,77.57
2022-10-05T10:40:53.496Z,78.78
2022-10-05T10:41:53.513Z,77.57
2022-10-05T10:42:53.497Z,78.67
2022-10-05T10:43:53.504Z,77.67
2022-10-05T10:44:53.468Z,77.27
2022-10-05T10:45:53.456Z,76.97
2022-10-05T10:46:53.875Z,76.93
2022-10-05T10:47:53.432Z,77.23
2022-10-05T10:48:53.439Z,75.38
2022-10-05T10:49:53.411Z,75.68
2022-10-05T10:50:53.419Z,75.79
2022-10-05T10:51:53.405Z,76.25
2022-10-05T10:52:53.427Z,75.75
2022-10-05T10:53:53.393Z,75.05
2022-10-05T10:54:53.359Z,75.85
2022-10-05T10:55:53.341Z,76.25
2022-10-05T10:56:53.329Z,76.15
2022-10-05T10:57:53.321Z,75.45
2022-10-05T10:58:53.307Z,75.95
2022-10-05T10:59:53.306Z,75.95
2022-10-05T11:00:53.334Z,75.95
2022-10-05T11:01:53.396Z,76.05
2022-10-05T11:02:53.299Z,75.35
2022-10-05T11:03:53.295Z,75.35
2022-10-05T11:04:53.251Z,75.82
2022-10-05T11:05:53.238Z,75.71
2022-10-05T11:06:53.244Z,75.78
2022-10-05T11:07:53.223Z,75.27
2022-10-05T11:08:53.191Z,75.58
2022-10-05T11:09:53.180Z,74.44
2022-10-05T11:10:53.210Z,75.24
2022-10-05T11:11:53.157Z,74.90
2022-10-05T11:12:53.160Z,75.41
2022-10-05T11:13:53.136Z,74.80
2022-10-05T11:14:53.134Z,74.17
2022-10-05T11:15:53.252Z,74.33
2022-10-05T11:16:53.152Z,74.93
2022-10-05T11:17:53.139Z,74.23
2022-10-05T11:18:53.083Z,73.19
2022-10-05T11:20:03.690Z,72.09
2022-10-05T11:20:54.156Z,72.80
2022-10-05T11:21:53.074Z,72.19
2022-10-05T11:22:53.058Z,73.39
2022-10-05T11:23:53.075Z,72.80
2022-10-05T11:24:53.031Z,71.33
2022-10-05T11:25:53.050Z,72.86
2022-10-05T11:26:53.021Z,72.09
2022-10-05T11:27:53.189Z,73.03
2022-10-05T11:28:53.047Z,73.94
2022-10-05T11:29:52.962Z,74.18
2022-10-05T11:30:52.987Z,74.98
2022-10-05T11:31:53.581Z,75.62
2022-10-05T11:32:52.931Z,75.71
2022-10-05T11:33:52.973Z,76.12
2022-10-05T11:34:52.907Z,76.12
2022-10-05T11:35:52.907Z,76.12
2022-10-05T11:36:52.897Z,76.42
2022-10-05T11:37:52.896Z,76.86
2022-10-05T11:38:52.886Z,75.85
2022-10-05T11:39:52.887Z,76.05
2022-10-05T11:40:52.854Z,76.59
2022-10-05T11:41:52.908Z,76.39
2022-10-05T11:42:52.845Z,77.09
2022-10-05T11:43:52.822Z,77.39
2022-10-05T11:45:02.710Z,78.40
2022-10-05T11:45:52.927Z,77.29
2022-10-05T11:46:52.866Z,77.53
2022-10-05T11:47:52.941Z,77.53
2022-10-05T11:48:52.776Z,78.23
2022-10-05T11:49:52.776Z,78.23
2022-10-05T11:50:52.730Z,78.54
2022-10-05T11:51:52.738Z,78.64
2022-10-05T11:52:52.721Z,78.54
2022-10-05T11:53:52.701Z,78.70
2022-10-05T11:55:09.937Z,78.70
2022-10-05T11:55:53.735Z,77.29
2022-10-05T11:56:54.607Z,77.90
2022-10-05T11:57:52.694Z,76.76
2022-10-05T11:58:52.687Z,77.26
2022-10-05T11:59:52.655Z,77.32
2022-10-05T12:00:52.653Z,77.42
2022-10-05T12:01:52.632Z,77.32
2022-10-05T12:02:52.694Z,76.42
2022-10-05T12:03:52.675Z,76.12
2022-10-05T12:04:52.611Z,76.18
2022-10-05T12:05:52.583Z,77.28
2022-10-05T12:06:52.591Z,75.38
2022-10-05T12:07:52.592Z,76.28
2022-10-05T12:08:52.553Z,76.78
2022-10-05T12:09:52.584Z,76.38
2022-10-05T12:10:52.531Z,75.58
2022-10-05T12:11:57.008Z,75.68
2022-10-05T12:12:53.518Z,77.99
2022-10-05T12:13:52.502Z,76.08
2022-10-05T12:14:52.495Z,75.74
2022-10-05T12:15:52.505Z,74.74
2022-10-05T12:16:52.471Z,74.34
2022-10-05T12:17:52.465Z,74.04
2022-10-05T12:18:52.450Z,72.43
2022-10-05T12:19:52.443Z,72.53
2022-10-05T12:20:52.430Z,72.83
2022-10-05T12:21:52.430Z,72.74
2022-10-05T12:22:52.426Z,74.04
2022-10-05T12:23:52.437Z,74.04
2022-10-05T12:24:52.385Z,74.24
2022-10-05T12:25:52.379Z,74.84
2022-10-05T12:26:52.394Z,74.44
2022-10-05T12:27:52.409Z,73.94
2022-10-05T12:28:52.330Z,74.94
2022-10-05T12:29:52.339Z,74.54
2022-10-05T12:30:52.347Z,74.74
2022-10-05T12:31:52.313Z,75.41
2022-10-05T12:32:52.297Z,73.44
2022-10-05T12:33:52.299Z,74.04
2022-10-05T12:34:52.317Z,74.14
2022-10-05T12:35:52.267Z,74.14
2022-10-05T12:37:04.050Z,74.24
2022-10-05T12:37:53.238Z,73.64
2022-10-05T12:38:52.289Z,74.14
2022-10-05T12:39:52.239Z,74.84
2022-10-05T12:40:52.214Z,74.88
2022-10-05T12:41:52.244Z,74.34
2022-10-05T12:42:52.184Z,74.27
2022-10-05T12:43:52.211Z,74.04
2022-10-05T12:44:52.187Z,74.27
2022-10-05T12:45:52.243Z,75.34
2022-10-05T12:46:52.152Z,75.04
2022-10-05T12:47:53.953Z,74.94
2022-10-05T12:48:52.135Z,74.27
2022-10-05T12:49:52.128Z,74.94
2022-10-05T12:50:52.113Z,74.48
2022-10-05T12:51:52.119Z,74.48
2022-10-05T12:52:52.087Z,74.98
2022-10-05T12:53:52.084Z,74.07
2022-10-05T12:54:52.067Z,73.57
2022-10-05T12:55:52.077Z,73.97
2022-10-05T12:56:52.036Z,73.97